Time;durP1;ratioP1;P1;durP2;ratioP2;P2;SDS_P1;SDS_P2;PMS_P1;PMS_P2;Temp;Humidity;BMP_temperature;BMP_pressure;BME280_temperature;BME280_humidity;BME280_pressure;Samples;Min_cycle;Max_cycle;Signal;HPM_P1;HPM_P2
2022/05/18 00:00:53;;;;;;;11.27;7.65;;;12.80;99.90;;;;;;5012384;28;20161;-82
2022/05/18 00:03:27;;;;;;;13.63;7.40;;;12.80;99.90;;;;;;5016107;28;20025;-82
2022/05/18 00:05:53;;;;;;;15.05;7.03;;;12.70;99.90;;;;;;5008727;28;20030;-82
2022/05/18 00:08:19;;;;;;;11.25;7.65;;;12.80;99.90;;;;;;5011317;28;20228;-82
2022/05/18 00:10:47;;;;;;;14.18;7.25;;;12.70;99.90;;;;;;5020855;28;20026;-82
2022/05/18 00:13:13;;;;;;;10.82;6.97;;;12.70;99.90;;;;;;5015666;28;20477;-82
2022/05/18 00:15:40;;;;;;;12.27;6.65;;;12.70;99.90;;;;;;5019200;28;20034;-81
2022/05/18 00:18:07;;;;;;;13.32;7.38;;;12.60;99.90;;;;;;5022272;28;20135;-82
2022/05/18 00:20:33;;;;;;;13.00;8.18;;;12.60;99.90;;;;;;5013209;28;20049;-82
2022/05/18 00:23:01;;;;;;;11.95;7.95;;;12.60;99.90;;;;;;5015166;28;20497;-83
2022/05/18 00:25:33;;;;;;;21.60;8.68;;;12.60;99.90;;;;;;5014485;28;20125;-81
2022/05/18 00:27:59;;;;;;;14.23;9.40;;;12.60;99.90;;;;;;5014979;28;20038;-82
2022/05/18 00:30:26;;;;;;;15.93;9.50;;;12.50;99.90;;;;;;5013510;28;20029;-82
2022/05/18 00:32:52;;;;;;;20.08;10.27;;;12.50;99.90;;;;;;5011531;28;20149;-82
2022/05/18 00:35:19;;;;;;;16.55;10.88;;;12.50;99.90;;;;;;5005704;28;20030;-82
2022/05/18 00:37:45;;;;;;;21.17;11.07;;;12.50;99.90;;;;;;5013097;28;20033;-83
2022/05/18 00:40:13;;;;;;;14.98;10.15;;;12.50;99.90;;;;;;5020157;28;20129;-82
2022/05/18 00:42:39;;;;;;;19.08;10.70;;;12.50;99.90;;;;;;5024859;28;20108;-82
2022/05/18 00:45:06;;;;;;;17.90;11.50;;;12.40;99.90;;;;;;5020667;28;20112;-82
2022/05/18 00:47:32;;;;;;;17.98;10.38;;;12.40;99.90;;;;;;5019489;28;20036;-82
2022/05/18 00:50:34;;;;;;;18.40;10.63;;;12.40;99.90;;;;;;5011867;28;20025;-82
2022/05/18 00:53:18;;;;;;;20.92;10.95;;;12.30;99.90;;;;;;5012474;28;20045;-82
2022/05/18 00:55:49;;;;;;;20.95;12.55;;;12.30;99.90;;;;;;5014064;28;20089;-82
2022/05/18 00:58:30;;;;;;;19.83;12.00;;;12.40;99.90;;;;;;5013225;28;20052;-81
2022/05/18 01:00:56;;;;;;;21.00;13.07;;;12.40;99.90;;;;;;5007706;28;20034;-82
2022/05/18 01:03:27;;;;;;;21.67;13.07;;;12.30;99.90;;;;;;5012801;28;20057;-82
2022/05/18 01:06:02;;;;;;;22.23;12.18;;;12.40;99.90;;;;;;5008531;28;20112;-82
2022/05/18 01:08:41;;;;;;;18.73;11.70;;;12.40;99.90;;;;;;5013591;28;20042;-82
2022/05/18 01:11:07;;;;;;;23.10;11.23;;;12.40;99.90;;;;;;5021828;28;20036;-82
2022/05/18 01:13:33;;;;;;;21.55;11.77;;;12.40;99.90;;;;;;5016922;28;20033;-82
2022/05/18 01:15:59;;;;;;;19.92;13.18;;;12.30;99.90;;;;;;5021136;28;20123;-81
2022/05/18 01:18:25;;;;;;;22.83;12.65;;;12.30;99.90;;;;;;5012675;28;20021;-81
2022/05/18 01:20:51;;;;;;;23.25;14.02;;;12.30;99.90;;;;;;5014747;28;20539;-82
2022/05/18 01:23:19;;;;;;;18.73;13.15;;;12.40;99.90;;;;;;5016904;28;20030;-81
2022/05/18 01:26:07;;;;;;;20.50;12.40;;;12.30;99.90;;;;;;5014243;28;20041;-81
2022/05/18 01:28:38;;;;;;;22.25;14.07;;;12.30;99.90;;;;;;5014491;28;20032;-82
2022/05/18 01:31:04;;;;;;;27.30;14.77;;;12.30;99.90;;;;;;4995780;28;20244;-81
2022/05/18 01:33:31;;;;;;;23.25;13.40;;;12.20;99.90;;;;;;5017004;28;20515;-81
2022/05/18 01:35:57;;;;;;;23.45;13.10;;;12.20;99.90;;;;;;5015769;28;20065;-81
2022/05/18 01:38:23;;;;;;;23.25;13.52;;;12.10;99.90;;;;;;5013024;28;20053;-82
2022/05/18 01:40:56;;;;;;;23.52;12.68;;;12.00;99.90;;;;;;5019355;28;20478;-81
2022/05/18 01:43:37;;;;;;;21.85;13.23;;;12.00;99.90;;;;;;5024722;28;20037;-81
2022/05/18 01:46:07;;;;;;;23.20;12.45;;;12.00;99.90;;;;;;5006625;28;20167;-81
2022/05/18 01:48:36;;;;;;;19.83;12.60;;;12.00;99.90;;;;;;5015269;28;20026;-81
2022/05/18 01:51:04;;;;;;;18.77;10.73;;;11.90;99.90;;;;;;5019739;28;20390;-80
2022/05/18 01:53:32;;;;;;;18.88;11.77;;;11.80;99.90;;;;;;5018771;28;20073;-82
2022/05/18 01:55:58;;;;;;;19.90;11.02;;;11.80;99.90;;;;;;5018631;28;20069;-82
2022/05/18 01:58:24;;;;;;;19.58;11.23;;;11.80;99.90;;;;;;5011491;28;20387;-83
2022/05/18 02:00:51;;;;;;;17.40;12.30;;;11.70;99.90;;;;;;5017294;28;20038;-82
2022/05/18 02:03:17;;;;;;;18.38;11.90;;;11.70;99.90;;;;;;5009111;28;20136;-82
2022/05/18 02:05:43;;;;;;;23.52;14.05;;;11.60;99.90;;;;;;5014941;28;20095;-82
2022/05/18 02:08:10;;;;;;;18.85;12.15;;;11.60;99.90;;;;;;5017660;28;20033;-82
2022/05/18 02:10:36;;;;;;;30.95;13.57;;;11.60;99.90;;;;;;5015294;28;20555;-82
2022/05/18 02:13:02;;;;;;;19.13;11.93;;;11.50;99.90;;;;;;5002156;28;20030;-81
2022/05/18 02:15:28;;;;;;;19.88;12.80;;;11.50;99.90;;;;;;4994398;28;20033;-84
2022/05/18 02:17:54;;;;;;;22.25;12.05;;;11.40;99.90;;;;;;5016986;28;20038;-82
2022/05/18 02:20:20;;;;;;;24.52;12.48;;;11.50;99.90;;;;;;5012490;28;20033;-82
2022/05/18 02:22:47;;;;;;;23.17;12.80;;;11.50;99.90;;;;;;5008706;28;20026;-82
2022/05/18 02:25:13;;;;;;;23.88;13.85;;;11.50;99.90;;;;;;5017221;28;20095;-83
2022/05/18 02:27:39;;;;;;;24.48;12.15;;;11.50;99.90;;;;;;5013767;28;20030;-81
2022/05/18 02:30:06;;;;;;;20.42;11.18;;;11.40;99.90;;;;;;4984969;28;20496;-81
2022/05/18 02:32:31;;;;;;;21.38;11.77;;;11.30;99.90;;;;;;5012280;28;20049;-81
2022/05/18 02:34:57;;;;;;;27.85;12.48;;;11.30;99.90;;;;;;5014688;28;20088;-81
2022/05/18 02:37:22;;;;;;;23.67;13.48;;;11.30;99.90;;;;;;5017500;28;20190;-82
2022/05/18 02:39:48;;;;;;;22.45;12.38;;;11.30;99.90;;;;;;5025194;28;20140;-81
2022/05/18 02:42:14;;;;;;;21.40;12.27;;;11.30;99.90;;;;;;5025332;28;20033;-82
2022/05/18 02:44:39;;;;;;;23.30;13.65;;;11.30;99.90;;;;;;5023924;28;20113;-81
2022/05/18 02:47:05;;;;;;;27.00;12.90;;;11.20;99.90;;;;;;5018220;28;20056;-82
2022/05/18 02:49:31;;;;;;;22.77;12.93;;;11.10;99.90;;;;;;5016757;28;20041;-82
2022/05/18 02:51:57;;;;;;;22.27;12.40;;;11.10;99.90;;;;;;5016444;28;20037;-82
2022/05/18 02:57:08;;;;;;;20.83;12.85;;;11.10;99.90;;;;;;5013162;28;20044;-83
2022/05/18 02:59:34;;;;;;;24.15;13.15;;;11.00;99.90;;;;;;5004466;28;20044;-82
2022/05/18 03:02:00;;;;;;;20.60;11.90;;;11.10;99.90;;;;;;5009701;28;20488;-81
2022/05/18 03:04:26;;;;;;;24.40;12.93;;;11.00;99.90;;;;;;5008626;28;20037;-82
2022/05/18 03:06:52;;;;;;;25.05;13.68;;;11.00;99.90;;;;;;5016207;28;20033;-81
2022/05/18 03:09:18;;;;;;;26.20;13.95;;;11.10;99.90;;;;;;5019456;28;20132;-82
2022/05/18 03:11:46;;;;;;;32.85;17.25;;;11.00;99.90;;;;;;5014591;28;20042;-81
2022/05/18 03:14:13;;;;;;;32.47;16.60;;;11.10;99.90;;;;;;5023563;28;20087;-82
2022/05/18 03:16:40;;;;;;;33.58;17.88;;;11.10;99.90;;;;;;5018190;28;20032;-81
2022/05/18 03:19:06;;;;;;;44.20;17.20;;;11.20;99.90;;;;;;4998515;28;20566;-83
2022/05/18 03:24:36;;;;;;;28.92;16.98;;;11.30;99.90;;;;;;5015152;28;20057;-81
2022/05/18 03:27:02;;;;;;;32.97;16.92;;;11.40;99.90;;;;;;4980333;28;20126;-82
2022/05/18 03:29:27;;;;;;;33.40;17.63;;;11.50;99.90;;;;;;5012719;28;20034;-82
2022/05/18 03:31:53;;;;;;;30.17;16.70;;;11.50;99.90;;;;;;5013056;28;20034;-82
2022/05/18 03:34:19;;;;;;;27.90;17.20;;;11.40;99.90;;;;;;5008966;28;20052;-82
2022/05/18 03:36:45;;;;;;;26.88;15.50;;;11.40;99.90;;;;;;5012302;28;20488;-82
2022/05/18 03:39:11;;;;;;;36.10;17.20;;;11.20;99.90;;;;;;5023055;28;20021;-81
2022/05/18 03:41:37;;;;;;;33.28;17.35;;;11.20;99.90;;;;;;5014396;28;20021;-85
2022/05/18 03:44:04;;;;;;;33.30;18.23;;;11.20;99.90;;;;;;5023712;28;20032;-82
2022/05/18 03:46:30;;;;;;;27.67;15.48;;;11.20;99.90;;;;;;5014261;28;20515;-82
2022/05/18 03:48:56;;;;;;;33.90;15.70;;;11.20;99.90;;;;;;5011274;28;20042;-82
2022/05/18 03:51:22;;;;;;;28.95;16.40;;;11.10;99.90;;;;;;4995958;28;20549;-82
2022/05/18 03:53:47;;;;;;;28.17;16.15;;;11.10;99.90;;;;;;5011247;28;20030;-82
2022/05/18 03:56:15;;;;;;;35.47;18.35;;;11.20;99.90;;;;;;4996439;28;20037;-82
2022/05/18 03:58:41;;;;;;;25.00;14.48;;;11.20;99.90;;;;;;5005958;28;20616;-82
2022/05/18 04:01:10;;;;;;;27.23;14.68;;;11.10;99.90;;;;;;5008460;28;20591;-81
2022/05/18 04:03:38;;;;;;;28.90;13.48;;;10.90;99.90;;;;;;5006147;28;20022;-81
2022/05/18 04:06:05;;;;;;;28.48;17.23;;;10.90;99.90;;;;;;5004739;28;20053;-82
2022/05/18 04:08:31;;;;;;;29.40;14.70;;;11.10;99.90;;;;;;4999896;28;20414;-82
2022/05/18 04:10:57;;;;;;;35.92;15.93;;;11.00;99.90;;;;;;4997898;28;20034;-82
2022/05/18 04:13:27;;;;;;;28.48;15.85;;;11.10;99.90;;;;;;5003330;28;20030;-82
2022/05/18 04:15:54;;;;;;;24.42;14.75;;;11.10;99.90;;;;;;4996586;28;20516;-81
2022/05/18 04:18:22;;;;;;;32.13;17.10;;;11.20;99.90;;;;;;5006876;28;20489;-82
2022/05/18 04:20:49;;;;;;;37.03;18.15;;;11.20;99.90;;;;;;4997964;28;20026;-83
2022/05/18 04:23:15;;;;;;;37.50;19.65;;;11.20;99.90;;;;;;4996448;28;20022;-82
2022/05/18 04:25:41;;;;;;;35.47;19.02;;;11.40;99.90;;;;;;4998276;28;20057;-82
2022/05/18 04:28:08;;;;;;;36.60;18.67;;;11.60;99.90;;;;;;5009722;28;20560;-82
2022/05/18 04:30:35;;;;;;;43.97;22.00;;;11.70;99.90;;;;;;4998096;28;20046;-81
2022/05/18 04:33:01;;;;;;;36.38;20.55;;;11.80;99.90;;;;;;4996592;28;20084;-83
2022/05/18 04:35:28;;;;;;;43.50;20.30;;;11.90;99.90;;;;;;5003501;28;20026;-82
2022/05/18 04:37:54;;;;;;;32.20;17.88;;;11.90;99.90;;;;;;4994231;28;20034;-82
2022/05/18 04:40:21;;;;;;;38.28;18.60;;;12.00;99.90;;;;;;5005645;28;20017;-81
2022/05/18 04:42:47;;;;;;;37.08;17.80;;;12.10;99.90;;;;;;5013848;28;20049;-82
2022/05/18 04:45:17;;;;;;;37.63;20.48;;;12.20;99.90;;;;;;5013146;28;20022;-84
2022/05/18 04:47:43;;;;;;;33.85;16.73;;;12.40;99.90;;;;;;4997857;28;20540;-82
2022/05/18 04:50:10;;;;;;;33.22;15.38;;;12.50;99.90;;;;;;5004535;28;20041;-82
2022/05/18 04:52:36;;;;;;;34.80;17.48;;;12.70;99.90;;;;;;5011098;28;20413;-84
2022/05/18 04:55:01;;;;;;;36.85;19.90;;;12.60;99.90;;;;;;4998036;28;20042;-82
2022/05/18 04:57:27;;;;;;;32.78;16.58;;;12.60;99.90;;;;;;5011827;28;20161;-82
2022/05/18 04:59:53;;;;;;;36.75;19.90;;;12.90;99.90;;;;;;5012221;28;20846;-82
2022/05/18 05:02:19;;;;;;;36.05;18.15;;;13.00;99.90;;;;;;5000898;28;20084;-82
2022/05/18 05:04:45;;;;;;;39.50;21.08;;;13.10;99.90;;;;;;4997518;28;20543;-81
2022/05/18 05:07:11;;;;;;;34.78;19.95;;;13.20;99.90;;;;;;5001610;28;20121;-81
2022/05/18 05:09:37;;;;;;;40.28;19.35;;;13.40;99.90;;;;;;5008071;28;20049;-81
2022/05/18 05:12:04;;;;;;;37.38;19.15;;;13.50;99.90;;;;;;5022400;28;20062;-81
2022/05/18 05:14:30;;;;;;;35.45;19.52;;;13.60;99.90;;;;;;5016223;28;20827;-81
2022/05/18 05:16:56;;;;;;;33.83;17.55;;;13.80;99.90;;;;;;5016497;28;20069;-81
2022/05/18 05:19:21;;;;;;;37.10;18.60;;;13.90;99.90;;;;;;5015161;28;20493;-82
2022/05/18 05:21:47;;;;;;;34.00;17.95;;;14.00;99.90;;;;;;5017611;28;20486;-82
2022/05/18 05:24:14;;;;;;;33.60;19.80;;;14.20;99.90;;;;;;5011120;28;20431;-81
2022/05/18 05:26:41;;;;;;;39.63;20.55;;;14.10;99.90;;;;;;5016521;28;20048;-81
2022/05/18 05:29:08;;;;;;;34.65;18.75;;;14.10;99.90;;;;;;5011435;28;20036;-80
2022/05/18 05:31:35;;;;;;;39.67;18.27;;;14.20;99.90;;;;;;5009846;28;20042;-81
2022/05/18 05:34:01;;;;;;;34.40;17.60;;;14.30;99.90;;;;;;5011492;28;20489;-80
2022/05/18 05:36:27;;;;;;;52.20;19.38;;;14.40;99.90;;;;;;5011141;28;20038;-82
2022/05/18 05:38:53;;;;;;;33.88;17.90;;;14.40;99.90;;;;;;5010692;28;20030;-85
2022/05/18 05:41:19;;;;;;;33.72;17.25;;;14.50;99.90;;;;;;4994155;28;20029;-86
2022/05/18 05:43:44;;;;;;;30.73;17.42;;;14.70;99.90;;;;;;5009080;28;20131;-85
2022/05/18 05:46:14;;;;;;;30.27;18.00;;;14.70;99.90;;;;;;5009846;28;20501;-78
2022/05/18 05:48:42;;;;;;;28.25;16.90;;;14.80;99.90;;;;;;5010276;28;20037;-79
2022/05/18 05:51:12;;;;;;;37.78;18.08;;;14.80;99.90;;;;;;5008046;28;20041;-79
2022/05/18 05:53:39;;;;;;;41.43;19.67;;;14.60;99.90;;;;;;5013189;28;20136;-79
2022/05/18 05:56:06;;;;;;;39.55;19.40;;;14.50;99.90;;;;;;5012451;28;20417;-79
2022/05/18 05:58:33;;;;;;;36.08;17.75;;;14.70;99.90;;;;;;5009403;28;20481;-86
2022/05/18 06:01:00;;;;;;;38.58;18.52;;;14.70;99.90;;;;;;5010782;28;20038;-86
2022/05/18 06:03:26;;;;;;;36.28;18.90;;;14.70;99.90;;;;;;5000814;28;20489;-86
2022/05/18 06:05:52;;;;;;;37.30;19.27;;;14.80;99.90;;;;;;5010321;28;20693;-86
2022/05/18 06:08:18;;;;;;;39.03;18.67;;;14.80;99.90;;;;;;5013373;28;20516;-86
2022/05/18 06:10:44;;;;;;;34.60;19.27;;;14.90;99.90;;;;;;4992932;28;20042;-86
2022/05/18 06:13:11;;;;;;;38.70;19.67;;;15.00;99.90;;;;;;4994557;28;20034;-86
2022/05/18 06:15:37;;;;;;;39.03;19.40;;;15.00;99.90;;;;;;5014420;28;20385;-87
2022/05/18 06:18:03;;;;;;;32.22;19.33;;;14.90;99.90;;;;;;5040593;28;20236;-85
2022/05/18 06:20:29;;;;;;;36.38;20.85;;;15.00;99.90;;;;;;5015394;28;20034;-86
2022/05/18 06:22:58;;;;;;;35.17;19.33;;;15.10;99.90;;;;;;5012196;28;20489;-86
2022/05/18 06:25:23;;;;;;;33.63;17.60;;;15.20;99.90;;;;;;5008664;28;20037;-87
2022/05/18 06:27:49;;;;;;;31.70;19.25;;;15.20;99.90;;;;;;5010326;28;20389;-86
2022/05/18 06:30:15;;;;;;;34.08;19.50;;;15.30;99.90;;;;;;4996129;28;20727;-87
2022/05/18 06:32:41;;;;;;;38.95;19.10;;;15.40;99.90;;;;;;5008354;28;20037;-86
2022/05/18 06:35:07;;;;;;;32.88;19.65;;;15.40;99.90;;;;;;5013006;28;20025;-86
2022/05/18 06:37:33;;;;;;;29.98;17.83;;;15.50;99.90;;;;;;5023595;28;20084;-85
2022/05/18 06:39:59;;;;;;;38.08;20.35;;;15.70;99.90;;;;;;5019960;28;20030;-85
2022/05/18 06:42:25;;;;;;;36.33;18.48;;;15.90;99.90;;;;;;5014436;28;20147;-86
2022/05/18 06:44:50;;;;;;;28.67;18.05;;;16.00;99.90;;;;;;5012952;28;20030;-86
2022/05/18 06:47:16;;;;;;;33.08;17.30;;;16.10;99.90;;;;;;5044038;28;20034;-86
2022/05/18 06:49:42;;;;;;;29.08;16.25;;;16.20;99.90;;;;;;4999370;28;20060;-87
2022/05/18 06:52:09;;;;;;;31.75;16.90;;;16.30;99.90;;;;;;5013388;28;20119;-86
2022/05/18 06:54:36;;;;;;;32.03;16.67;;;16.40;99.90;;;;;;5012258;28;20180;-85
2022/05/18 06:57:02;;;;;;;31.73;17.65;;;16.40;99.90;;;;;;5013135;28;20037;-86
2022/05/18 06:59:27;;;;;;;28.13;16.98;;;16.50;99.90;;;;;;5010742;28;20030;-86
2022/05/18 07:01:53;;;;;;;29.42;16.30;;;16.60;99.90;;;;;;4988237;28;20035;-86
2022/05/18 07:04:19;;;;;;;26.80;16.38;;;16.60;99.90;;;;;;5017358;28;20080;-86
2022/05/18 07:06:46;;;;;;;28.75;16.50;;;16.80;99.90;;;;;;5019729;28;20038;-86
2022/05/18 07:09:15;;;;;;;28.92;16.02;;;16.80;99.90;;;;;;5011659;28;20026;-86
2022/05/18 07:11:42;;;;;;;30.35;17.80;;;17.00;99.90;;;;;;5012670;28;20574;-86
2022/05/18 07:14:09;;;;;;;27.52;17.27;;;17.10;99.90;;;;;;5021121;28;20563;-86
2022/05/18 07:16:35;;;;;;;28.40;16.77;;;17.20;99.90;;;;;;5016431;28;20040;-86
2022/05/18 07:19:01;;;;;;;26.30;16.38;;;17.10;99.90;;;;;;5020015;28;20409;-86
2022/05/18 07:21:27;;;;;;;33.00;17.98;;;17.20;99.90;;;;;;4998319;28;20026;-86
2022/05/18 07:23:53;;;;;;;30.83;18.20;;;17.30;99.90;;;;;;4997706;28;20154;-86
2022/05/18 07:26:20;;;;;;;36.80;17.05;;;17.30;99.90;;;;;;5011497;28;20026;-86
2022/05/18 07:28:47;;;;;;;30.05;17.13;;;17.40;99.90;;;;;;5011963;28;20038;-86
2022/05/18 07:31:14;;;;;;;28.88;16.98;;;17.70;99.90;;;;;;5012949;28;20058;-86
2022/05/18 07:33:39;;;;;;;32.63;17.95;;;17.60;99.90;;;;;;5012124;28;20030;-86
2022/05/18 07:36:06;;;;;;;33.17;17.73;;;17.70;99.90;;;;;;5018136;28;20420;-86
2022/05/18 07:38:33;;;;;;;35.90;19.83;;;17.90;99.90;;;;;;5016363;28;20026;-84
2022/05/18 07:40:59;;;;;;;26.27;16.17;;;18.10;99.90;;;;;;5019495;28;20034;-86
2022/05/18 07:43:26;;;;;;;32.63;18.27;;;18.30;98.70;;;;;;5011257;28;20088;-87
2022/05/18 07:45:54;;;;;;;30.83;18.00;;;18.50;98.80;;;;;;5014962;28;20107;-86
2022/05/18 07:48:20;;;;;;;33.33;16.40;;;18.50;99.90;;;;;;5018263;28;20037;-86
2022/05/18 07:50:46;;;;;;;26.45;16.13;;;18.70;99.80;;;;;;4997701;28;20121;-86
2022/05/18 07:53:12;;;;;;;37.65;16.92;;;18.90;98.90;;;;;;5013734;28;20112;-86
2022/05/18 07:55:38;;;;;;;35.00;16.83;;;19.10;97.90;;;;;;5012009;28;20045;-86
2022/05/18 07:58:10;;;;;;;30.13;17.05;;;19.20;98.40;;;;;;5004610;28;20060;-87
2022/05/18 08:00:37;;;;;;;32.67;15.80;;;19.40;98.30;;;;;;5010491;28;20033;-86
2022/05/18 08:03:03;;;;;;;36.00;16.48;;;19.50;94.90;;;;;;5013150;28;20034;-86
2022/05/18 08:05:30;;;;;;;32.03;16.30;;;19.50;97.20;;;;;;5012910;28;20040;-86
2022/05/18 08:08:02;;;;;;;28.55;17.02;;;19.70;97.80;;;;;;5024855;28;20037;-86
2022/05/18 08:15:56;;;;;;;27.00;15.13;;;20.00;96.30;;;;;;5014368;28;20092;-86
2022/05/18 08:18:22;;;;;;;27.98;16.27;;;20.50;95.20;;;;;;5011557;28;20034;-86
2022/05/18 08:20:48;;;;;;;27.23;14.80;;;20.80;92.60;;;;;;5015816;28;20558;-86
2022/05/18 08:23:17;;;;;;;29.02;15.13;;;20.90;86.90;;;;;;5008222;28;20057;-86
2022/05/18 08:25:46;;;;;;;31.20;14.13;;;20.90;91.70;;;;;;5006909;28;20033;-86
2022/05/18 08:28:11;;;;;;;24.95;13.18;;;21.10;87.90;;;;;;5015024;28;20112;-85
2022/05/18 08:30:39;;;;;;;25.30;14.38;;;21.20;89.50;;;;;;5006609;28;20113;-86
2022/05/18 08:33:09;;;;;;;22.30;13.52;;;21.40;89.40;;;;;;4990009;28;20042;-86
2022/05/18 08:35:38;;;;;;;21.95;13.27;;;21.50;86.30;;;;;;5015256;28;20033;-87
2022/05/18 08:38:03;;;;;;;31.02;14.45;;;21.70;87.10;;;;;;5020042;28;20042;-86
2022/05/18 08:40:36;;;;;;;21.50;12.23;;;21.90;82.50;;;;;;5015306;28;20095;-86
2022/05/18 08:43:08;;;;;;;25.30;13.48;;;21.80;79.80;;;;;;5008687;28;20026;-86
2022/05/18 08:45:39;;;;;;;23.67;12.68;;;21.90;80.90;;;;;;5011352;28;20033;-86
2022/05/18 08:48:28;;;;;;;16.80;11.57;;;22.20;76.80;;;;;;5012697;28;20033;-86
2022/05/18 08:51:07;;;;;;;14.27;8.88;;;22.30;76.50;;;;;;5008050;28;20033;-86
2022/05/18 08:53:38;;;;;;;11.00;7.50;;;22.10;68.90;;;;;;5009590;28;20116;-84
2022/05/18 08:56:42;;;;;;;20.70;8.20;;;22.20;61.00;;;;;;5013697;28;20204;-85
2022/05/18 08:59:22;;;;;;;14.27;7.80;;;22.40;60.00;;;;;;5008913;28;20132;-86
2022/05/18 09:01:51;;;;;;;11.75;7.40;;;22.70;64.70;;;;;;5000068;28;20030;-86
2022/05/18 09:04:31;;;;;;;13.35;8.07;;;23.00;55.20;;;;;;4992777;28;20029;-86
2022/05/18 09:07:05;;;;;;;14.80;8.95;;;23.00;59.40;;;;;;5024548;28;20034;-86
2022/05/18 09:12:31;;;;;;;8.55;6.22;;;23.00;55.00;;;;;;5005350;28;20424;-86
2022/05/18 09:14:59;;;;;;;14.02;7.90;;;23.10;51.30;;;;;;5000573;28;20046;-86
2022/05/18 09:17:50;;;;;;;15.77;8.60;;;23.40;57.30;;;;;;5018620;28;20026;-85
2022/05/18 09:20:41;;;;;;;14.55;9.60;;;23.50;52.20;;;;;;5012983;28;20037;-86
2022/05/18 09:23:12;;;;;;;12.30;8.00;;;23.60;60.70;;;;;;5012282;28;20021;-86
2022/05/18 09:25:45;;;;;;;15.55;7.85;;;24.00;50.10;;;;;;5009155;28;20494;-86
2022/05/18 09:28:55;;;;;;;10.80;7.57;;;24.40;52.20;;;;;;5012760;28;20030;-85
2022/05/18 09:31:40;;;;;;;10.38;8.13;;;24.10;55.20;;;;;;5001815;28;20039;-86
2022/05/18 09:34:25;;;;;;;12.05;7.60;;;24.60;49.90;;;;;;5010608;28;20030;-86
2022/05/18 09:37:07;;;;;;;12.32;8.60;;;24.20;46.20;;;;;;5007777;28;20027;-86
2022/05/18 09:39:41;;;;;;;14.95;9.27;;;24.40;46.80;;;;;;5021462;28;20018;-85
2022/05/18 09:42:14;;;;;;;11.68;7.80;;;24.70;49.50;;;;;;5021195;28;20029;-86
2022/05/18 09:44:45;;;;;;;15.95;9.10;;;25.20;48.80;;;;;;5010038;28;20084;-86
2022/05/18 09:47:15;;;;;;;16.80;9.55;;;25.40;52.40;;;;;;5026955;28;20026;-86
2022/05/18 09:49:45;;;;;;;16.40;9.23;;;25.40;52.10;;;;;;5026192;28;20186;-86
2022/05/18 09:52:13;;;;;;;14.90;8.20;;;25.30;49.90;;;;;;5015560;28;20285;-86
2022/05/18 09:54:40;;;;;;;14.35;8.75;;;25.10;42.70;;;;;;5026650;28;20061;-85
2022/05/18 09:57:14;;;;;;;16.40;9.02;;;25.00;46.80;;;;;;5054168;28;20039;-89
2022/05/18 09:59:45;;;;;;;16.15;8.88;;;25.10;49.50;;;;;;5024108;28;20140;-86
2022/05/18 10:07:57;;;;;;;16.33;9.02;;;25.50;46.10;;;;;;5011112;28;20791;-84
2022/05/18 10:10:30;;;;;;;12.15;7.72;;;25.70;46.80;;;;;;5020930;28;20037;-84
2022/05/18 10:12:58;;;;;;;14.43;8.57;;;25.80;41.20;;;;;;5018182;28;20078;-84
2022/05/18 10:15:41;;;;;;;12.85;7.30;;;25.50;46.70;;;;;;5020475;28;20029;-84
2022/05/18 10:18:16;;;;;;;12.98;7.75;;;26.10;42.50;;;;;;5032275;28;20022;-87
2022/05/18 10:20:58;;;;;;;11.07;7.30;;;26.50;39.10;;;;;;5045383;28;20073;-83
2022/05/18 10:23:35;;;;;;;13.95;8.27;;;26.70;42.90;;;;;;5040790;28;20020;-81
2022/05/18 10:26:01;;;;;;;16.92;9.55;;;26.40;41.00;;;;;;5039539;28;20034;-84
2022/05/18 10:28:29;;;;;;;18.48;10.25;;;26.50;43.50;;;;;;5034479;28;20045;-81
2022/05/18 10:31:03;;;;;;;16.45;9.93;;;26.10;45.10;;;;;;5035877;28;20037;-85
2022/05/18 10:33:38;;;;;;;17.08;10.43;;;26.50;45.40;;;;;;5034682;28;20021;-87
2022/05/18 10:36:16;;;;;;;13.98;9.63;;;26.40;43.70;;;;;;5047284;28;20202;-82
2022/05/18 10:38:57;;;;;;;13.23;8.60;;;26.10;43.10;;;;;;5035942;28;20045;-82
2022/05/18 10:41:27;;;;;;;10.85;7.60;;;26.00;45.50;;;;;;5021658;28;20013;-82
2022/05/18 10:44:33;;;;;;;17.90;8.25;;;26.40;44.60;;;;;;5043680;28;20035;-83
2022/05/18 10:47:17;;;;;;;14.30;7.05;;;26.50;46.30;;;;;;5011579;28;20079;-86
2022/05/18 10:49:45;;;;;;;11.68;6.95;;;26.60;44.90;;;;;;5036188;28;20051;-86
2022/05/18 10:52:19;;;;;;;11.63;6.35;;;27.00;40.60;;;;;;5016980;28;20041;-91
2022/05/18 10:54:59;;;;;;;10.25;5.72;;;27.20;40.20;;;;;;5032277;28;20040;-86
2022/05/18 10:57:39;;;;;;;10.52;6.93;;;27.50;39.00;;;;;;5022028;28;20041;-80
2022/05/18 11:00:10;;;;;;;12.52;7.43;;;27.60;37.50;;;;;;5031775;28;20041;-82
2022/05/18 11:03:07;;;;;;;10.65;7.53;;;28.30;36.60;;;;;;5031486;28;20132;-79
2022/05/18 11:05:53;;;;;;;11.38;7.63;;;28.70;35.90;;;;;;5028074;28;20024;-80
2022/05/18 11:08:24;;;;;;;10.93;8.02;;;29.40;35.20;;;;;;5031274;28;20006;-78
2022/05/18 11:10:53;;;;;;;15.45;7.45;;;29.60;35.50;;;;;;5039530;28;20029;-80
2022/05/18 11:13:28;;;;;;;;;;;29.70;32.50;;;;;;5037546;28;20056;-84
2022/05/18 11:16:07;;;;;;;10.63;7.05;;;29.90;34.40;;;;;;5040979;28;19910;-80
2022/05/18 11:18:59;;;;;;;11.37;7.67;;;29.20;35.20;;;;;;5032917;28;20018;-80
2022/05/18 11:21:30;;;;;;;12.25;7.55;;;29.50;34.80;;;;;;5042185;28;20148;-79
2022/05/18 11:24:15;;;;;;;10.27;6.80;;;30.30;33.80;;;;;;5041840;28;20061;-79
2022/05/18 11:26:41;;;;;;;8.65;6.15;;;30.40;34.80;;;;;;5036811;28;20021;-79
2022/05/18 11:29:21;;;;;;;12.55;5.90;;;30.20;29.90;;;;;;5035676;28;20248;-79
2022/05/18 11:32:06;;;;;;;10.15;5.05;;;30.10;30.70;;;;;;5031909;28;20025;-78
2022/05/18 11:34:46;;;;;;;11.80;6.05;;;30.60;30.10;;;;;;5040744;28;20049;-78
2022/05/18 11:38:17;;;;;;;9.40;5.78;;;30.10;30.70;;;;;;5030177;28;20150;-79
2022/05/18 11:41:07;;;;;;;9.80;5.78;;;30.60;31.20;;;;;;5027720;28;20026;-81
2022/05/18 11:43:54;;;;;;;9.93;5.68;;;30.80;31.20;;;;;;5027430;28;20021;-81
2022/05/18 11:46:25;;;;;;;9.55;5.22;;;30.50;32.20;;;;;;5043467;28;20081;-80
2022/05/18 11:49:01;;;;;;;9.32;6.53;;;30.50;30.70;;;;;;5037927;28;20077;-89
2022/05/18 11:51:53;;;;;;;7.43;5.25;;;30.80;30.90;;;;;;5036303;28;20048;-80
2022/05/18 11:54:22;;;;;;;8.73;5.55;;;31.20;32.00;;;;;;5001542;28;20028;-86
2022/05/18 11:57:05;;;;;;;7.72;5.30;;;31.50;30.00;;;;;;5041988;28;20052;-79
2022/05/18 12:00:02;;;;;;;8.23;5.22;;;31.20;28.20;;;;;;5027464;28;20579;-79
2022/05/18 12:03:01;;;;;;;8.98;5.72;;;31.10;29.90;;;;;;5033373;28;20014;-80
2022/05/18 12:05:46;;;;;;;;;;;31.50;27.80;;;;;;5043141;28;20017;-78
2022/05/18 12:08:27;;;;;;;8.18;6.05;;;32.00;26.20;;;;;;5044539;28;19909;-77
2022/05/18 12:11:02;;;;;;;9.15;5.65;;;31.00;30.90;;;;;;5022679;28;20075;-78
2022/05/18 12:13:57;;;;;;;10.45;5.95;;;31.30;27.50;;;;;;5020787;28;20053;-78
2022/05/18 12:16:44;;;;;;;9.77;5.60;;;31.80;30.70;;;;;;5010141;28;20031;-78
2022/05/18 12:19:21;;;;;;;12.65;5.80;;;31.50;27.10;;;;;;5017604;28;20489;-79
2022/05/18 12:21:58;;;;;;;9.50;5.88;;;31.90;28.20;;;;;;5013143;28;20025;-80
2022/05/18 12:24:25;;;;;;;7.18;5.30;;;31.70;27.90;;;;;;5010158;28;20033;-80
2022/05/18 12:26:52;;;;;;;12.02;5.47;;;32.90;26.20;;;;;;5013164;28;20037;-79
2022/05/18 12:29:23;;;;;;;8.05;5.50;;;33.00;27.40;;;;;;5009502;28;20489;-79
2022/05/18 12:31:51;;;;;;;7.05;5.53;;;32.60;27.70;;;;;;5014812;28;20053;-80
2022/05/18 12:34:23;;;;;;;7.25;5.88;;;32.60;27.70;;;;;;5028334;28;20033;-79
2022/05/18 12:36:57;;;;;;;7.85;5.53;;;32.20;27.70;;;;;;5020655;28;20103;-79
2022/05/18 12:39:23;;;;;;;8.20;5.82;;;32.10;27.50;;;;;;5016979;28;20026;-81
2022/05/18 12:41:56;;;;;;;8.52;5.45;;;31.90;27.30;;;;;;5019480;28;20020;-79
2022/05/18 12:44:32;;;;;;;10.38;5.50;;;32.00;27.70;;;;;;5019163;28;20018;-79
2022/05/18 12:47:09;;;;;;;8.27;5.45;;;32.50;27.20;;;;;;5033907;28;20029;-78
2022/05/18 12:49:42;;;;;;;7.50;5.18;;;33.10;27.00;;;;;;4998111;28;20053;-81
2022/05/18 12:52:55;;;;;;;7.05;5.30;;;33.90;26.90;;;;;;5008458;28;20065;-80
2022/05/18 12:55:42;;;;;;;7.60;5.30;;;34.00;25.80;;;;;;4999975;28;20172;-80
2022/05/18 12:58:11;;;;;;;7.07;5.45;;;33.30;26.50;;;;;;5002182;28;20026;-82
2022/05/18 13:00:55;;;;;;;7.43;5.07;;;33.50;25.20;;;;;;5005506;28;20041;-82
2022/05/18 13:03:26;;;;;;;10.52;5.68;;;34.00;24.50;;;;;;5021497;28;20032;-86
2022/05/18 13:05:55;;;;;;;6.63;5.28;;;33.90;24.30;;;;;;5018112;28;20026;-86
2022/05/18 13:08:23;;;;;;;7.38;4.70;;;33.90;25.30;;;;;;5012465;28;20152;-84
2022/05/18 13:11:31;;;;;;;8.17;5.30;;;33.90;25.70;;;;;;5035251;28;20036;-86